Líbí se Vám tento web? Budeme velmi rádi, pokud přidáte hodnocení +1

Seznam meteostanic a jejich METAR

Vyhledat místa podle abecedy:
A B C D E F G H I J K L M N O P Q R S T U V W X Y Z

Filtrovat:

ID stanice:
a/nebo
Název místa (fulltext):
 
Místo (ID)Naposledy načteno 
Brno - Tuřany (Brno/Tu) 26.03.2017 01:00 UTC Zobrazit data
Místo: Brno - Tuřany
Teplota: 6 °C (pocitová: 0.7 °C)
Vítr: 3 m/s z(e) 360°
Počasí: skoro zataženo
Dohlednost: 35 km
Zákl. oblačnosti: 5/8 7500 m
Vlhkost: 66%
Červená - Opava (Cervena/uL) 26.03.2017 01:00 UTC Zobrazit data
Místo: Červená - Opava
Teplota: 0 °C (pocitová: -9.7 °C)
Vítr: 6 m/s z(e) 10°
Počasí: skoro zataženo
Dohlednost: 27 km
Zákl. oblačnosti: 7/8 210 m
Vlhkost: 100%
České Budějovice (C.Budej/po) 26.03.2017 01:00 UTC Zobrazit data
Místo: České Budějovice
Teplota: 0 °C (pocitová: -4.3 °C)
Vítr: 1 m/s z(e) 160°
Počasí: oblačno
Dohlednost: 12 km
Zákl. oblačnosti: 3/8 7200 m
Vlhkost: 100%
Cheb (Cheb) 26.03.2017 01:00 UTC Zobrazit data
Místo: Cheb
Teplota: 2 °C (pocitová: -3.3 °C)
Vítr: 2 m/s z(e) 20°
Počasí: skorojasno
Dohlednost: 20 km
Zákl. oblačnosti: 1/8 7200 m
Vlhkost: 81%
Chotusice - Čáslav (Caslav) 26.03.2017 01:00 UTC Zobrazit data
Místo: Chotusice - Čáslav
Teplota: 5 °C (pocitová: -1.5 °C)
Vítr: 4 m/s z(e) 40°
Počasí: skorojasno
Dohlednost: 20 km
Zákl. oblačnosti: 2/8 6900 m
Vlhkost: 70%
Churáňov (Churanov) 26.03.2017 01:00 UTC Zobrazit data
Místo: Churáňov
Teplota: 0 °C (pocitová: -8.4 °C)
Vítr: 4 m/s z(e) 40°
Počasí: oblačno
Dohlednost: 20 km
Zákl. oblačnosti: 3/8 7200 m
Vlhkost: 87%
Doksany - Litoměřice (Doksany) 26.03.2017 01:00 UTC Zobrazit data
Místo: Doksany - Litoměřice
Teplota: 5 °C (pocitová: -1.5 °C)
Vítr: 4 m/s z(e) 30°
Počasí:
Dohlednost: 20 km
Zákl. oblačnosti: N/A
Vlhkost: 70%
Dukovany (Dukovany) 26.03.2017 01:00 UTC Zobrazit data
Místo: Dukovany
Teplota: 4 °C (pocitová: -4.6 °C)
Vítr: 7 m/s z(e) 350°
Počasí:
Dohlednost: 20 km
Zákl. oblačnosti: N/A
Vlhkost: 75%
Holešov (Holesov) 26.03.2017 01:00 UTC Zobrazit data
Místo: Holešov
Teplota: 4 °C (pocitová: -4.1 °C)
Vítr: 6 m/s z(e) 30°
Počasí:
Dohlednost: 20 km
Zákl. oblačnosti: N/A
Vlhkost: 75%
Kadaň - Tušimice (Tusimice) 26.03.2017 01:00 UTC Zobrazit data
Místo: Kadaň - Tušimice
Teplota: 5 °C (pocitová: -0.7 °C)
Vítr: 3 m/s z(e) 10°
Počasí:
Dohlednost: 35 km
Zákl. oblačnosti: N/A
Vlhkost: 76%
Karlovy Vary (K.Vary) 26.03.2017 01:00 UTC Zobrazit data
Místo: Karlovy Vary
Teplota: 3 °C (pocitová: -3.3 °C)
Vítr: 3 m/s z(e) 60°
Počasí: oblačno
Dohlednost: 30 km
Zákl. oblačnosti: 4/8 6000 m
Vlhkost: 70%
Kocelovice (Kocelovice) 26.03.2017 01:00 UTC Zobrazit data
Místo: Kocelovice
Teplota: 4 °C (pocitová: 0.6 °C)
Vítr: 1 m/s z(e) 0°
Počasí:
Dohlednost: 20 km
Zákl. oblačnosti: N/A
Vlhkost: 70%
Kopisty (Kopisty) 25.03.2017 21:00 UTC Zobrazit data
Místo: Kopisty
Teplota: 7 °C (pocitová: 3.1 °C)
Vítr: 2 m/s z(e) 10°
Počasí: skoro zataženo
Dohlednost: 30 km
Zákl. oblačnosti: 7/8 8400 m
Vlhkost: 53%
Kostelní Myslová (K.Myslova) 26.03.2017 01:00 UTC Zobrazit data
Místo: Kostelní Myslová
Teplota: 2 °C (pocitová: -1.8 °C)
Vítr: 1 m/s z(e) 0°
Počasí: oblačno
Dohlednost: 20 km
Zákl. oblačnosti: 3/8 6600 m
Vlhkost: 81%
Křešín - Kramolín (Kramolin) 26.03.2017 01:00 UTC Zobrazit data
Místo: Křešín - Kramolín
Teplota: 3 °C (pocitová: -4.3 °C)
Vítr: 4 m/s z(e) 360°
Počasí:
Dohlednost: 20 km
Zákl. oblačnosti: N/A
Vlhkost: 75%
Kuchařovice - Znojmo (Kucharovic) 26.03.2017 01:00 UTC Zobrazit data
Místo: Kuchařovice - Znojmo
Teplota: 3 °C (pocitová: -3.3 °C)
Vítr: 3 m/s z(e) 330°
Počasí: skorojasno
Dohlednost: 16 km
Zákl. oblačnosti: 1/8 6300 m
Vlhkost: 81%
Liberec (Liberec) 26.03.2017 01:00 UTC Zobrazit data
Místo: Liberec
Teplota: 2 °C (pocitová: -3.3 °C)
Vítr: 2 m/s z(e) 280°
Počasí:
Dohlednost: 20 km
Zákl. oblačnosti: N/A
Vlhkost: 81%
Luká (Luka) 26.03.2017 01:00 UTC Zobrazit data
Místo: Luká
Teplota: 2 °C (pocitová: -6.9 °C)
Vítr: 6 m/s z(e) 360°
Počasí:
Dohlednost: 19 km
Zákl. oblačnosti: N/A
Vlhkost: 87%
Lysá Hora (Lysa Hora) 25.03.2017 22:00 UTC Zobrazit data
Místo: Lysá Hora
Teplota: -2 °C (pocitová: -13.8 °C)
Vítr: 8 m/s z(e) 340°
Počasí: skorojasno
Dohlednost: 14 km
Zákl. oblačnosti: 1/8 690 m
Vlhkost: 93%
Milešovka (Milesovka) 26.03.2017 01:00 UTC Zobrazit data
Místo: Milešovka
Teplota: 0 °C (pocitová: -9.2 °C)
Vítr: 5 m/s z(e) 40°
Počasí: oblačno
Dohlednost: 35 km
Zákl. oblačnosti: 3/8 6600 m
Vlhkost: 93%
Mošnov (Ostrava/Mo) 26.03.2017 01:00 UTC Zobrazit data
Místo: Mošnov
Teplota: 3 °C (pocitová: -5 °C)
Vítr: 5 m/s z(e) 10°
Počasí: skoro zataženo
Dohlednost: 20 km
Zákl. oblačnosti: 6/8 3900 m
Vlhkost: 81%
Náměšť nad Oslavou (Namest n/O) 26.03.2017 01:00 UTC Zobrazit data
Místo: Náměšť nad Oslavou
Teplota: 3 °C (pocitová: -4.3 °C)
Vítr: 4 m/s z(e) 360°
Počasí: oblačno
Dohlednost: 20 km
Zákl. oblačnosti: 3/8 7200 m
Vlhkost: 75%
Pardubice (Pardubice) 26.03.2017 01:00 UTC Zobrazit data
Místo: Pardubice
Teplota: 4 °C (pocitová: -0.8 °C)
Vítr: 2 m/s z(e) 30°
Počasí: oblačno
Dohlednost: 20 km
Zákl. oblačnosti: 4/8 6000 m
Vlhkost: 75%
Pec pod Sněžkou (Pec p.Snez) 26.03.2017 01:00 UTC Zobrazit data
Místo: Pec pod Sněžkou
Teplota: 0 °C (pocitová: -5.9 °C)
Vítr: 2 m/s z(e) 0°
Počasí:
Dohlednost: 20 km
Zákl. oblačnosti: N/A
Vlhkost: 87%
Plzeň město - Mikulka (Plzen/Miku) 26.03.2017 01:00 UTC Zobrazit data
Místo: Plzeň město - Mikulka
Teplota: 2 °C (pocitová: -3.3 °C)
Vítr: 2 m/s z(e) 360°
Počasí: skorojasno
Dohlednost: 21 km
Zákl. oblačnosti: 2/8 6600 m
Vlhkost: 87%
Polom (Polom) 26.03.2017 01:00 UTC Zobrazit data
Místo: Polom
Teplota: 0 °C (pocitová: -8.4 °C)
Vítr: 4 m/s z(e) 10°
Počasí: skoro zataženo
Dohlednost: 20 km
Zákl. oblačnosti: 3/8 300 m
Vlhkost: 93%
Praha - Karlov (Praha/Kar) 26.03.2017 01:00 UTC Zobrazit data
Místo: Praha - Karlov
Teplota: 6 °C (pocitová: 1.8 °C)
Vítr: 2 m/s z(e) 330°
Počasí: oblačno
Dohlednost: 20 km
Zákl. oblačnosti: 3/8 5400 m
Vlhkost: 66%
Praha - Kbely (Praha/Kbe) 26.03.2017 01:00 UTC Zobrazit data
Místo: Praha - Kbely
Teplota: 4 °C (pocitová: -2 °C)
Vítr: 3 m/s z(e) 340°
Počasí: skorojasno
Dohlednost: 20 km
Zákl. oblačnosti: 2/8 7200 m
Vlhkost: 75%
Praha - Libuš (Praha/Lib) 26.03.2017 01:00 UTC Zobrazit data
Místo: Praha - Libuš
Teplota: 5 °C (pocitová: 0.5 °C)
Vítr: 2 m/s z(e) 0°
Počasí:
Dohlednost: 30 km
Zákl. oblačnosti: N/A
Vlhkost: 70%
Praha - Ruzyně (Praha/Ru) 26.03.2017 01:00 UTC Zobrazit data
Místo: Praha - Ruzyně
Teplota: 3 °C (pocitová: -2.1 °C)
Vítr: 2 m/s z(e) 330°
Počasí: skoro zataženo
Dohlednost: 30 km
Zákl. oblačnosti: 6/8 6900 m
Vlhkost: 75%
Přibyslav (Pribyslav) 26.03.2017 01:00 UTC Zobrazit data
Místo: Přibyslav
Teplota: 2 °C (pocitová: -3.3 °C)
Vítr: 2 m/s z(e) 340°
Počasí:
Dohlednost: 20 km
Zákl. oblačnosti: N/A
Vlhkost: 87%
Přimda (Primda) 26.03.2017 01:00 UTC Zobrazit data
Místo: Přimda
Teplota: 2 °C (pocitová: -6.9 °C)
Vítr: 6 m/s z(e) 80°
Počasí: skoro zataženo
Dohlednost: 20 km
Zákl. oblačnosti: 5/8 6300 m
Vlhkost: 75%
Šerák (Serak) 25.03.2017 21:00 UTC Zobrazit data
Místo: Šerák
Teplota: -1 °C (pocitová: -10.6 °C)
Vítr: 5 m/s z(e) 10°
Počasí: oblačno
Dohlednost: 17 km
Zákl. oblačnosti: 1/8 240 m;3/8 360 m
Vlhkost: 86%
Svratouch (Svratouch) 26.03.2017 01:00 UTC Zobrazit data
Místo: Svratouch
Teplota: 0 °C (pocitová: -9.7 °C)
Vítr: 6 m/s z(e) 40°
Počasí: skorojasno
Dohlednost: 17 km
Zákl. oblačnosti: 1/8 390 m
Vlhkost: 100%
Temelín (Temelin) 26.03.2017 01:00 UTC Zobrazit data
Místo: Temelín
Teplota: 4 °C (pocitová: -2 °C)
Vítr: 3 m/s z(e) 360°
Počasí: skoro zataženo
Dohlednost: 20 km
Zákl. oblačnosti: 7/8 6900 m
Vlhkost: 65%
Ústí nad Labem - Kočkov (Usti n/L) 26.03.2017 01:00 UTC Zobrazit data
Místo: Ústí nad Labem - Kočkov
Teplota: 3 °C (pocitová: -3.3 °C)
Vítr: 3 m/s z(e) 70°
Počasí:
Dohlednost: 28 km
Zákl. oblačnosti: N/A
Vlhkost: 81%
Ústí nad Orlicí (Usti n/O) 26.03.2017 01:00 UTC Zobrazit data
Místo: Ústí nad Orlicí
Teplota: 3 °C (pocitová: -5 °C)
Vítr: 5 m/s z(e) 40°
Počasí:
Dohlednost: 20 km
Zákl. oblačnosti: N/A
Vlhkost: 81%
Aalborg (EKYT) 26.03.2017 08:50 UTC Zobrazit METAR
EKYT 260850Z 23010KT 2000 BR VV002 06/06 Q1026
Aarhus (EKAH) 25.03.2017 17:50 UTC Zobrazit METAR
EKAH 251750Z 31004KT CAVOK 07/01 Q1026
Abu Dhabi (OMAA) 26.03.2017 10:00 UTC Zobrazit METAR
OMAA 261000Z 16011KT 130V190 6000 FEW026 31/18 Q1012 NOSIG
Abuja (DNAA) 25.03.2017 17:00 UTC Zobrazit METAR
DNAA 251700Z 14007KT 110V180 CAVOK 39/09 Q1007 NOSIG
Accra (DGAA) 26.03.2017 10:00 UTC Zobrazit METAR
DGAA 261000Z 23010KT 200V270 9999 FEW023 SCT026 30/24 Q1012 NOSIG
Addis Abeba (HAAB) 26.03.2017 08:00 UTC Zobrazit METAR
HAAB 260800Z 21007KT 9999 BKN025 20/12 Q1028
Agana (PGUM) 26.03.2017 09:54 UTC Zobrazit METAR
PGUM 260954Z 08006KT 10SM FEW023 27/23 A2997 RMK AO2 SLP140 T02720233
Ahe Island (NTHE) Zatím nenačteno  
Akureyri (BIAR) 26.03.2017 10:00 UTC Zobrazit METAR
BIAR 261000Z 36009KT 320V020 9000 -RA FEW009 BKN020 OVC033 02/01 Q1009
Almaty (UAAA) Zatím nenačteno  
Amman (OJAM) 26.03.2017 10:00 UTC Zobrazit METAR
OJAM 261000Z 18005KT 5000 HZ NSC 20/00 Q1018 NOSIG
Amsterdam (EHAM) 26.03.2017 09:55 UTC Zobrazit METAR
EHAM 260955Z 07007KT CAVOK 10/05 Q1026 NOSIG
Antananarivo (FMMI) 26.03.2017 09:00 UTC Zobrazit METAR
FMMI 260900Z 00000KT 9999 FEW020 28/14 Q1018 NOSIG
1 2 3 ... 9 Další
Reklama

Počasí na Váš email

Emaily jsou bez reklamy a bez spamu



Odhlásit newsletter

Reklama


Lunární kalendář

  • 28.03.
  • 03.04.
  • 11.04.
  • 19.04.



Jsme na Google Plus

Reklama
Povinné ručení



Může Vás také zajímat:


Reklama